createdAt,value
2019-04-05T00:00:04.627Z,9.93
2019-04-05T00:01:10.039Z,9.43
2019-04-05T00:02:12.880Z,9.95
2019-04-05T00:03:15.521Z,9.70
2019-04-05T00:04:18.278Z,9.45
2019-04-05T00:05:21.446Z,9.48
2019-04-05T00:06:25.136Z,8.23
2019-04-05T00:07:30.895Z,10.70
2019-04-05T00:08:34.094Z,8.98
2019-04-05T00:09:37.214Z,10.45
2019-04-05T00:10:40.590Z,9.53
2019-04-05T00:11:43.935Z,11.85
2019-04-05T00:12:47.258Z,8.85
2019-04-05T00:13:50.503Z,9.33
2019-04-05T00:14:53.850Z,11.68
2019-04-05T00:15:57.347Z,10.53
2019-04-05T00:17:01.138Z,10.80
2019-04-05T00:18:04.118Z,11.15
2019-04-05T00:19:07.565Z,8.83
2019-04-05T00:20:11.415Z,12.68
2019-04-05T00:21:15.073Z,12.45
2019-04-05T00:22:19.448Z,11.40
2019-04-05T00:23:22.677Z,10.13
2019-04-05T00:24:25.893Z,11.28
2019-04-05T00:25:28.875Z,10.15
2019-04-05T00:26:31.982Z,13.40
2019-04-05T00:27:35.121Z,12.85
2019-04-05T00:28:38.509Z,11.50
2019-04-05T00:29:42.728Z,13.62
2019-04-05T00:30:46.423Z,10.80
2019-04-05T00:31:49.523Z,12.13
2019-04-05T00:32:52.972Z,11.83
2019-04-05T00:33:56.395Z,14.47
2019-04-05T00:34:59.540Z,13.25
2019-04-05T00:36:05.399Z,11.85
2019-04-05T00:37:08.281Z,12.78
2019-04-05T00:38:11.928Z,14.13
2019-04-05T00:39:14.600Z,13.65
2019-04-05T00:40:17.266Z,10.60
2019-04-05T00:41:20.139Z,12.65
2019-04-05T00:42:22.672Z,12.58
2019-04-05T00:43:25.540Z,15.60
2019-04-05T00:44:28.122Z,13.48
2019-04-05T00:45:30.736Z,11.83
2019-04-05T00:46:33.270Z,12.70
2019-04-05T00:47:35.933Z,13.35
2019-04-05T00:48:38.442Z,12.85
2019-04-05T00:49:41.171Z,14.03
2019-04-05T00:50:43.908Z,14.80
2019-04-05T00:51:46.650Z,12.88
2019-04-05T00:52:49.230Z,12.37
2019-04-05T00:53:51.964Z,12.50
2019-04-05T00:54:54.636Z,12.50
2019-04-05T00:55:57.306Z,13.70
2019-04-05T00:56:59.874Z,15.55
2019-04-05T00:58:02.487Z,14.03
2019-04-05T00:59:05.242Z,13.35
2019-04-05T01:00:08.522Z,17.37
2019-04-05T01:01:11.401Z,13.20
2019-04-05T01:02:15.563Z,15.30
2019-04-05T01:03:18.103Z,15.83
2019-04-05T01:04:21.993Z,13.80
2019-04-05T01:05:24.838Z,16.60
2019-04-05T01:06:27.832Z,16.07
2019-04-05T01:07:30.525Z,14.20
2019-04-05T01:08:33.179Z,18.25
2019-04-05T01:09:36.026Z,14.55
2019-04-05T01:10:38.919Z,14.63
2019-04-05T01:11:42.675Z,14.53
2019-04-05T01:12:45.933Z,15.43
2019-04-05T01:13:49.593Z,13.88
2019-04-05T01:14:53.667Z,14.98
2019-04-05T01:15:56.459Z,16.32
2019-04-05T01:16:59.277Z,14.10
2019-04-05T01:18:02.481Z,16.12
2019-04-05T01:19:05.552Z,16.23
2019-04-05T01:20:10.493Z,16.55
2019-04-05T01:21:17.858Z,14.20
2019-04-05T01:22:24.847Z,15.15
2019-04-05T01:23:28.150Z,14.93
2019-04-05T01:24:31.469Z,15.38
2019-04-05T01:25:35.210Z,15.90
2019-04-05T01:26:40.256Z,17.80
2019-04-05T01:27:43.084Z,16.37
2019-04-05T01:28:46.118Z,15.70
2019-04-05T01:29:48.852Z,19.92
2019-04-05T01:30:51.519Z,14.83
2019-04-05T01:31:54.073Z,19.48
2019-04-05T01:32:56.801Z,13.65
2019-04-05T01:33:59.495Z,16.62
2019-04-05T01:35:02.204Z,14.47
2019-04-05T01:36:04.946Z,15.88
2019-04-05T01:37:07.572Z,15.65
2019-04-05T01:38:10.236Z,15.08
2019-04-05T01:39:12.810Z,16.82
2019-04-05T01:40:15.515Z,14.43
2019-04-05T01:41:18.172Z,14.73
2019-04-05T01:42:21.920Z,11.38
2019-04-05T01:43:25.087Z,10.90
2019-04-05T01:44:28.329Z,11.08
2019-04-05T01:45:30.978Z,11.22
2019-04-05T01:46:34.221Z,12.65
2019-04-05T01:47:37.162Z,14.83
2019-04-05T01:48:39.909Z,11.55
2019-04-05T01:49:42.779Z,13.30
2019-04-05T01:50:45.294Z,11.65
2019-04-05T01:51:48.084Z,10.35
2019-04-05T01:52:50.806Z,10.65
2019-04-05T01:53:53.487Z,12.33
2019-04-05T01:54:56.442Z,11.88
2019-04-05T01:55:59.095Z,14.10
2019-04-05T01:57:01.933Z,12.63
2019-04-05T01:58:04.456Z,14.05
2019-04-05T01:59:07.405Z,11.80
2019-04-05T02:00:11.122Z,10.25
2019-04-05T02:01:14.052Z,9.90
2019-04-05T02:02:16.596Z,10.63
2019-04-05T02:03:19.283Z,10.35
2019-04-05T02:04:21.865Z,11.83
2019-04-05T02:05:24.783Z,12.58
2019-04-05T02:06:27.466Z,11.93
2019-04-05T02:07:32.596Z,11.20
2019-04-05T02:08:37.190Z,10.98
2019-04-05T02:09:39.941Z,11.97
2019-04-05T02:10:42.937Z,10.25
2019-04-05T02:11:46.776Z,10.35
2019-04-05T02:12:49.702Z,12.23
2019-04-05T02:13:53.843Z,13.65
2019-04-05T02:14:56.721Z,11.15
2019-04-05T02:16:06.110Z,13.50
2019-04-05T02:17:03.969Z,10.00
2019-04-05T02:18:06.722Z,10.25
2019-04-05T02:19:09.421Z,9.38
2019-04-05T02:20:12.557Z,9.40
2019-04-05T02:21:15.167Z,13.98
2019-04-05T02:22:17.883Z,8.88
2019-04-05T02:23:20.405Z,10.08
2019-04-05T02:24:22.967Z,8.78
2019-04-05T02:25:26.197Z,10.45
2019-04-05T02:26:28.950Z,9.05
2019-04-05T02:27:31.533Z,10.00
2019-04-05T02:28:34.174Z,10.13
2019-04-05T02:29:36.723Z,8.53
2019-04-05T02:30:39.276Z,8.78
2019-04-05T02:31:41.989Z,10.35
2019-04-05T02:32:44.612Z,14.38
2019-04-05T02:33:47.384Z,8.30
2019-04-05T02:34:50.355Z,9.70
2019-04-05T02:35:53.129Z,10.40
2019-04-05T02:36:55.909Z,10.43
2019-04-05T02:37:58.603Z,8.55
2019-04-05T02:39:01.111Z,8.28
2019-04-05T02:40:05.703Z,9.33
2019-04-05T02:41:08.825Z,11.10
2019-04-05T02:42:12.511Z,9.23
2019-04-05T02:43:17.662Z,8.18
2019-04-05T02:44:21.521Z,9.58
2019-04-05T02:45:26.456Z,10.85
2019-04-05T02:46:30.878Z,9.83
2019-04-05T02:47:33.855Z,11.95
2019-04-05T02:48:39.980Z,10.28
2019-04-05T02:49:44.024Z,11.12
2019-04-05T02:50:50.798Z,8.50
2019-04-05T02:51:55.490Z,10.38
2019-04-05T02:53:01.992Z,10.82
2019-04-05T02:54:04.977Z,10.90
2019-04-05T02:55:08.228Z,10.82
2019-04-05T02:56:12.397Z,10.35
2019-04-05T02:57:17.666Z,11.28
2019-04-05T02:58:20.493Z,7.45
2019-04-05T02:59:24.353Z,9.45
2019-04-05T03:00:28.334Z,9.90
2019-04-05T03:01:32.740Z,10.43
2019-04-05T03:02:36.061Z,10.95
2019-04-05T03:03:39.635Z,10.03
2019-04-05T03:04:42.579Z,11.90
2019-04-05T03:05:46.301Z,11.12
2019-04-05T03:06:50.642Z,8.15
2019-04-05T03:07:53.301Z,12.10
2019-04-05T03:08:56.157Z,11.48
2019-04-05T03:09:59.419Z,10.15
2019-04-05T03:11:07.579Z,14.40
2019-04-05T03:12:10.379Z,10.53
2019-04-05T03:13:13.231Z,9.13
2019-04-05T03:14:16.772Z,9.93
2019-04-05T03:15:19.354Z,10.03
2019-04-05T03:16:39.177Z,8.63
2019-04-05T03:17:33.624Z,8.33
2019-04-05T03:18:40.534Z,10.90
2019-04-05T03:19:45.170Z,9.23
2019-04-05T03:20:48.383Z,10.43
2019-04-05T03:21:54.254Z,9.28
2019-04-05T03:22:57.388Z,11.00
2019-04-05T03:24:03.359Z,11.53
2019-04-05T03:25:06.239Z,10.38
2019-04-05T03:26:12.774Z,10.80
2019-04-05T03:27:21.555Z,10.90
2019-04-05T03:28:25.653Z,11.60
2019-04-05T03:29:29.375Z,12.93
2019-04-05T03:30:32.135Z,11.48
2019-04-05T03:31:36.660Z,10.60
2019-04-05T03:32:39.860Z,14.50
2019-04-05T03:33:42.696Z,13.40
2019-04-05T03:34:45.477Z,12.28
2019-04-05T03:35:49.317Z,10.45
2019-04-05T03:36:52.221Z,9.90
2019-04-05T03:37:55.272Z,12.58
2019-04-05T03:38:58.253Z,10.70
2019-04-05T03:40:00.996Z,10.88
2019-04-05T03:41:04.342Z,12.70
2019-04-05T03:42:07.617Z,10.45
2019-04-05T03:43:11.302Z,14.03
2019-04-05T03:44:13.972Z,12.35
2019-04-05T03:45:16.739Z,16.70
2019-04-05T03:46:19.468Z,15.18
2019-04-05T03:47:22.371Z,13.48
2019-04-05T03:48:25.207Z,11.88
2019-04-05T03:49:28.957Z,11.83
2019-04-05T03:50:31.915Z,13.43
2019-04-05T03:51:34.890Z,12.65
2019-04-05T03:52:39.313Z,13.28
2019-04-05T03:53:42.032Z,13.78
2019-04-05T03:54:44.754Z,13.65
2019-04-05T03:55:48.312Z,13.32
2019-04-05T03:56:50.839Z,12.13
2019-04-05T03:57:53.587Z,14.65
2019-04-05T03:58:56.231Z,13.20
2019-04-05T04:00:00.602Z,14.98
2019-04-05T04:01:03.988Z,15.18
2019-04-05T04:02:06.748Z,14.38
2019-04-05T04:03:09.779Z,11.25
2019-04-05T04:04:12.515Z,16.50
2019-04-05T04:05:15.150Z,13.80
2019-04-05T04:06:18.211Z,14.87
2019-04-05T04:07:20.980Z,14.40
2019-04-05T04:08:23.607Z,14.30
2019-04-05T04:09:26.629Z,13.20
2019-04-05T04:10:29.344Z,18.07
2019-04-05T04:11:31.951Z,14.58
2019-04-05T04:12:35.063Z,12.78
2019-04-05T04:13:38.340Z,15.75
2019-04-05T04:14:41.131Z,14.05
2019-04-05T04:15:44.120Z,14.20
2019-04-05T04:16:48.840Z,15.32
2019-04-05T04:17:51.918Z,17.95
2019-04-05T04:18:54.741Z,14.05
2019-04-05T04:19:57.817Z,14.00
2019-04-05T04:21:06.729Z,17.20
2019-04-05T04:22:38.492Z,15.23
2019-04-05T04:23:41.085Z,19.37
2019-04-05T04:24:43.829Z,12.13
2019-04-05T04:25:48.505Z,14.75
2019-04-05T04:26:51.251Z,11.43
2019-04-05T04:27:53.838Z,16.95
2019-04-05T04:28:57.135Z,14.60
2019-04-05T04:30:00.693Z,13.15
2019-04-05T04:31:03.601Z,12.80
2019-04-05T04:32:06.659Z,14.83
2019-04-05T04:33:10.827Z,17.12
2019-04-05T04:34:13.866Z,15.98
2019-04-05T04:35:16.711Z,14.90
2019-04-05T04:36:20.351Z,13.65
2019-04-05T04:37:23.289Z,17.82
2019-04-05T04:38:26.623Z,15.05
2019-04-05T04:39:29.604Z,14.25
2019-04-05T04:40:33.066Z,14.90
2019-04-05T04:41:35.657Z,14.90
2019-04-05T04:42:41.001Z,13.22
2019-04-05T04:43:44.528Z,14.43
2019-04-05T04:44:47.510Z,15.28
2019-04-05T04:45:50.442Z,13.55
2019-04-05T04:46:53.917Z,16.48
2019-04-05T04:47:57.565Z,15.72
2019-04-05T04:49:00.999Z,15.85
2019-04-05T04:50:04.767Z,13.68
2019-04-05T04:51:07.634Z,15.70
2019-04-05T04:52:10.877Z,19.20
2019-04-05T04:53:14.571Z,13.72
2019-04-05T04:54:17.627Z,16.23
2019-04-05T04:55:20.760Z,14.80
2019-04-05T04:56:23.415Z,17.15
2019-04-05T04:57:26.294Z,16.05
2019-04-05T04:58:28.886Z,15.00
2019-04-05T04:59:31.538Z,16.32
2019-04-05T05:00:34.763Z,15.55
2019-04-05T05:01:37.385Z,15.63
2019-04-05T05:02:40.522Z,15.78
2019-04-05T05:03:45.353Z,12.58
2019-04-05T05:04:48.457Z,12.50
2019-04-05T05:05:51.505Z,16.10
2019-04-05T05:06:54.278Z,13.65
2019-04-05T05:07:57.341Z,15.72
2019-04-05T05:09:00.418Z,13.50
2019-04-05T05:10:03.680Z,14.68
2019-04-05T05:11:14.394Z,18.48
2019-04-05T05:12:11.495Z,16.05
2019-04-05T05:13:15.331Z,19.35
2019-04-05T05:14:18.267Z,17.55
2019-04-05T05:15:21.121Z,18.10
2019-04-05T05:16:23.866Z,14.43
2019-04-05T05:17:37.801Z,15.98
2019-04-05T05:18:31.777Z,16.10
2019-04-05T05:19:35.735Z,14.33
2019-04-05T05:20:38.369Z,14.43
2019-04-05T05:21:41.192Z,14.23
2019-04-05T05:22:43.870Z,17.07
2019-04-05T05:23:47.185Z,16.48
2019-04-05T05:24:50.216Z,13.45
2019-04-05T05:25:53.200Z,13.35
2019-04-05T05:26:56.244Z,14.80
2019-04-05T05:27:59.278Z,17.48
2019-04-05T05:29:02.638Z,14.73
2019-04-05T05:30:06.316Z,16.62
2019-04-05T05:31:09.395Z,15.32
2019-04-05T05:32:13.440Z,16.32
2019-04-05T05:33:16.466Z,17.92
2019-04-05T05:34:19.443Z,20.50
2019-04-05T05:35:22.388Z,16.27
2019-04-05T05:36:25.019Z,13.78
2019-04-05T05:37:28.308Z,16.93
2019-04-05T05:38:31.161Z,17.62
2019-04-05T05:39:33.764Z,17.70
2019-04-05T05:40:36.897Z,14.00
2019-04-05T05:41:39.434Z,15.53
2019-04-05T05:42:41.953Z,15.43
2019-04-05T05:43:44.831Z,15.75
2019-04-05T05:44:47.751Z,16.52
2019-04-05T05:45:50.407Z,15.48
2019-04-05T05:46:53.337Z,15.85
2019-04-05T05:47:56.464Z,16.75
2019-04-05T05:48:59.410Z,17.35
2019-04-05T05:50:01.961Z,15.00
2019-04-05T05:51:04.581Z,15.95
2019-04-05T05:52:07.912Z,14.45
2019-04-05T05:53:10.973Z,15.43
2019-04-05T05:54:13.593Z,15.10
2019-04-05T05:55:16.359Z,15.05
2019-04-05T05:56:18.904Z,16.05
2019-04-05T05:57:21.436Z,18.98
2019-04-05T05:58:25.855Z,18.73
2019-04-05T05:59:30.235Z,14.73
2019-04-05T06:00:33.852Z,14.45
2019-04-05T06:01:36.583Z,17.07
2019-04-05T06:02:39.487Z,15.55
2019-04-05T06:03:42.387Z,17.23
2019-04-05T06:04:45.304Z,17.80
2019-04-05T06:05:48.000Z,19.85
2019-04-05T06:06:50.617Z,16.62
2019-04-05T06:07:54.562Z,17.67
2019-04-05T06:08:57.130Z,16.37
2019-04-05T06:09:59.881Z,14.45
2019-04-05T06:11:02.628Z,12.37
2019-04-05T06:12:05.467Z,13.22
2019-04-05T06:13:08.199Z,13.55
2019-04-05T06:14:10.760Z,16.07
2019-04-05T06:15:13.611Z,13.85
2019-04-05T06:16:16.262Z,13.78
2019-04-05T06:17:20.388Z,16.10
2019-04-05T06:18:22.897Z,15.80
2019-04-05T06:19:25.427Z,14.33
2019-04-05T06:20:27.990Z,14.18
2019-04-05T06:21:30.682Z,17.85
2019-04-05T06:22:33.304Z,15.58
2019-04-05T06:23:35.992Z,14.55
2019-04-05T06:24:38.630Z,15.90
2019-04-05T06:25:42.304Z,15.72
2019-04-05T06:26:44.875Z,18.12
2019-04-05T06:27:48.367Z,12.70
2019-04-05T06:28:52.252Z,16.62
2019-04-05T06:29:55.519Z,15.93
2019-04-05T06:30:58.063Z,16.97
2019-04-05T06:32:00.806Z,15.50
2019-04-05T06:33:03.367Z,17.65
2019-04-05T06:34:05.885Z,15.28
2019-04-05T06:35:09.118Z,15.93
2019-04-05T06:36:11.642Z,16.37
2019-04-05T06:37:14.336Z,13.95
2019-04-05T06:38:17.012Z,15.75
2019-04-05T06:39:20.785Z,15.55
2019-04-05T06:40:23.700Z,18.27
2019-04-05T06:41:27.347Z,14.45
2019-04-05T06:42:29.950Z,13.15
2019-04-05T06:43:32.686Z,18.15
2019-04-05T06:44:35.308Z,16.82
2019-04-05T06:45:37.832Z,13.62
2019-04-05T06:46:40.481Z,20.92
2019-04-05T06:47:43.262Z,17.12
2019-04-05T06:48:47.059Z,18.65
2019-04-05T06:49:49.689Z,15.98
2019-04-05T06:50:52.264Z,16.42
2019-04-05T06:51:54.796Z,16.55
2019-04-05T06:52:57.754Z,17.80
2019-04-05T06:54:03.259Z,16.48
2019-04-05T06:55:05.470Z,18.23
2019-04-05T06:56:08.206Z,16.35
2019-04-05T06:57:10.805Z,16.62
2019-04-05T06:58:19.838Z,13.35
2019-04-05T06:59:19.385Z,14.73
2019-04-05T07:00:29.192Z,12.78
2019-04-05T07:01:31.948Z,14.10
2019-04-05T07:02:34.632Z,15.68
2019-04-05T07:03:37.193Z,17.42
2019-04-05T07:04:39.839Z,15.20
2019-04-05T07:05:42.392Z,15.20
2019-04-05T07:06:45.120Z,16.17
2019-04-05T07:07:47.826Z,15.30
2019-04-05T07:08:54.102Z,15.23
2019-04-05T07:09:54.985Z,16.07
2019-04-05T07:10:57.624Z,16.82
2019-04-05T07:12:00.274Z,15.68
2019-04-05T07:13:04.216Z,16.62
2019-04-05T07:14:06.847Z,15.78
2019-04-05T07:15:09.698Z,14.60
2019-04-05T07:16:12.363Z,16.17
2019-04-05T07:17:15.129Z,18.00
2019-04-05T07:18:17.637Z,16.82
2019-04-05T07:19:20.153Z,13.98
2019-04-05T07:20:24.514Z,18.20
2019-04-05T07:21:27.150Z,15.38
2019-04-05T07:22:37.248Z,14.53
2019-04-05T07:23:34.663Z,16.67
2019-04-05T07:24:37.486Z,17.40
2019-04-05T07:25:40.394Z,16.95
2019-04-05T07:26:43.333Z,13.60
2019-04-05T07:27:46.082Z,14.85
2019-04-05T07:28:48.635Z,14.80
2019-04-05T07:29:51.182Z,14.53
2019-04-05T07:30:54.832Z,14.07
2019-04-05T07:31:57.386Z,16.48
2019-04-05T07:33:01.266Z,13.08
2019-04-05T07:34:04.081Z,14.47
2019-04-05T07:35:06.624Z,14.80
2019-04-05T07:36:09.190Z,17.27
2019-04-05T07:37:11.725Z,15.60
2019-04-05T07:38:14.257Z,13.95
2019-04-05T07:39:16.888Z,14.40
2019-04-05T07:40:19.798Z,15.23
2019-04-05T07:41:22.627Z,15.55
2019-04-05T07:42:25.348Z,15.65
2019-04-05T07:43:27.907Z,14.80
2019-04-05T07:44:31.547Z,15.63
2019-04-05T07:45:34.087Z,15.88
2019-04-05T07:46:36.748Z,15.70
2019-04-05T07:47:39.302Z,16.87
2019-04-05T07:48:45.057Z,15.32
2019-04-05T07:49:47.581Z,18.87
2019-04-05T07:50:50.374Z,15.23
2019-04-05T07:51:54.827Z,14.20
2019-04-05T07:52:58.483Z,13.13
2019-04-05T07:54:01.107Z,11.57
2019-04-05T07:55:05.278Z,13.45
2019-04-05T07:56:07.939Z,11.48
2019-04-05T07:57:23.202Z,12.13
2019-04-05T07:58:25.848Z,11.25
2019-04-05T07:59:28.397Z,10.58
2019-04-05T08:00:43.513Z,11.48
2019-04-05T08:01:46.034Z,14.45
2019-04-05T08:02:48.739Z,13.98
2019-04-05T08:03:51.381Z,11.50
2019-04-05T08:04:54.772Z,12.13
2019-04-05T08:05:57.944Z,13.08
2019-04-05T08:07:03.065Z,13.18
2019-04-05T08:08:08.940Z,13.80
2019-04-05T08:09:12.984Z,12.43
2019-04-05T08:10:15.773Z,14.25
2019-04-05T08:11:18.615Z,13.40
2019-04-05T08:12:21.178Z,14.68
2019-04-05T08:13:26.889Z,12.65
2019-04-05T08:14:31.065Z,13.13
2019-04-05T08:15:34.229Z,12.55
2019-04-05T08:16:36.981Z,13.43
2019-04-05T08:17:39.693Z,14.50
2019-04-05T08:18:42.204Z,11.15
2019-04-05T08:19:45.037Z,15.90
2019-04-05T08:20:47.589Z,9.65
2019-04-05T08:21:50.320Z,17.07
2019-04-05T08:22:52.914Z,10.80
2019-04-05T08:23:55.655Z,13.10
2019-04-05T08:24:58.209Z,9.78
2019-04-05T08:26:00.938Z,9.05
2019-04-05T08:27:03.657Z,10.93
2019-04-05T08:28:07.317Z,11.48
2019-04-05T08:29:09.865Z,13.38
2019-04-05T08:30:12.449Z,12.35
2019-04-05T08:31:15.233Z,12.13
2019-04-05T08:32:18.104Z,15.08
2019-04-05T08:33:20.658Z,10.70
2019-04-05T08:34:23.173Z,12.98
2019-04-05T08:35:25.958Z,11.08
2019-04-05T08:36:28.795Z,14.60
2019-04-05T08:37:31.312Z,11.95
2019-04-05T08:38:33.970Z,11.12
2019-04-05T08:39:36.604Z,12.90
2019-04-05T08:40:39.282Z,13.38
2019-04-05T08:41:41.783Z,12.10
2019-04-05T08:42:44.458Z,11.97
2019-04-05T08:43:47.465Z,14.70
2019-04-05T08:44:50.208Z,11.50
2019-04-05T08:45:52.773Z,15.32
2019-04-05T08:46:55.332Z,12.13
2019-04-05T08:47:58.041Z,12.28
2019-04-05T08:49:10.605Z,13.88
2019-04-05T08:50:05.729Z,10.88
2019-04-05T08:51:08.380Z,11.05
2019-04-05T08:52:10.957Z,11.20
2019-04-05T08:53:13.597Z,12.80
2019-04-05T08:54:16.197Z,11.50
2019-04-05T08:55:18.991Z,14.38
2019-04-05T08:56:21.660Z,12.37
2019-04-05T08:57:24.260Z,13.93
2019-04-05T08:58:33.532Z,12.47
2019-04-05T08:59:32.763Z,10.30
2019-04-05T09:00:35.454Z,9.43
2019-04-05T09:01:39.886Z,10.90
2019-04-05T09:02:42.524Z,10.32
2019-04-05T09:03:45.489Z,11.25
2019-04-05T09:04:48.134Z,10.72
2019-04-05T09:05:51.197Z,9.25
2019-04-05T09:06:53.790Z,10.15
2019-04-05T09:07:56.349Z,13.08
2019-04-05T09:08:58.891Z,10.08
2019-04-05T09:10:01.550Z,9.63
2019-04-05T09:11:04.495Z,10.90
2019-04-05T09:12:07.287Z,11.80
2019-04-05T09:13:10.097Z,9.98
2019-04-05T09:14:12.834Z,9.63
2019-04-05T09:15:15.708Z,10.23
2019-04-05T09:16:18.329Z,10.03
2019-04-05T09:17:20.962Z,9.83
2019-04-05T09:18:24.798Z,10.78
2019-04-05T09:19:27.394Z,11.05
2019-04-05T09:20:29.967Z,11.33
2019-04-05T09:21:32.742Z,11.25
2019-04-05T09:22:37.284Z,11.65
2019-04-05T09:23:39.851Z,9.65
2019-04-05T09:24:42.504Z,13.83
2019-04-05T09:25:45.155Z,11.33
2019-04-05T09:26:47.684Z,10.82
2019-04-05T09:27:50.248Z,13.18
2019-04-05T09:28:52.924Z,10.75
2019-04-05T09:29:56.562Z,10.48
2019-04-05T09:30:59.185Z,11.05
2019-04-05T09:32:01.760Z,10.28
2019-04-05T09:33:04.396Z,10.85
2019-04-05T09:34:07.641Z,11.80
2019-04-05T09:35:10.475Z,10.18
2019-04-05T09:36:13.159Z,13.85
2019-04-05T09:37:16.021Z,11.97
2019-04-05T09:38:18.781Z,10.15
2019-04-05T09:39:21.448Z,13.98
2019-04-05T09:40:24.430Z,12.40
2019-04-05T09:41:27.165Z,8.60
2019-04-05T09:42:29.926Z,13.20
2019-04-05T09:43:32.561Z,11.28
2019-04-05T09:44:35.235Z,11.95
2019-04-05T09:45:38.190Z,12.05
2019-04-05T09:46:48.073Z,12.58
2019-04-05T09:47:45.748Z,10.88
2019-04-05T09:48:48.263Z,13.18
2019-04-05T09:49:50.979Z,10.03
2019-04-05T09:50:53.738Z,11.95
2019-04-05T09:51:56.543Z,12.90
2019-04-05T09:52:59.186Z,10.88
2019-04-05T09:54:02.062Z,13.10
2019-04-05T09:55:04.907Z,10.80
2019-04-05T09:56:07.734Z,10.65
2019-04-05T09:57:10.474Z,11.05
2019-04-05T09:58:13.429Z,10.98
2019-04-05T09:59:15.968Z,12.58
2019-04-05T10:00:23.391Z,12.30
2019-04-05T10:01:26.326Z,9.13
2019-04-05T10:02:31.677Z,11.53
2019-04-05T10:03:33.326Z,11.22
2019-04-05T10:04:35.891Z,11.70
2019-04-05T10:05:38.459Z,11.20
2019-04-05T10:06:41.024Z,12.28
2019-04-05T10:07:54.273Z,12.98
2019-04-05T10:08:48.641Z,10.48
2019-04-05T10:09:51.350Z,10.08
2019-04-05T10:10:54.448Z,13.53
2019-04-05T10:11:57.025Z,10.70
2019-04-05T10:12:59.887Z,12.07
2019-04-05T10:14:02.700Z,10.60
2019-04-05T10:15:06.043Z,9.15
2019-04-05T10:16:08.613Z,12.55
2019-04-05T10:17:12.978Z,15.98
2019-04-05T10:18:15.532Z,14.25
2019-04-05T10:19:18.235Z,13.03
2019-04-05T10:20:20.916Z,13.68
2019-04-05T10:21:23.628Z,12.47
2019-04-05T10:22:26.260Z,13.38
2019-04-05T10:23:29.057Z,10.58
2019-04-05T10:24:33.102Z,15.38
2019-04-05T10:25:36.305Z,12.73
2019-04-05T10:26:39.244Z,11.78
2019-04-05T10:27:41.829Z,10.43
2019-04-05T10:28:44.554Z,14.85
2019-04-05T10:29:49.497Z,11.78
2019-04-05T10:30:52.224Z,12.37
2019-04-05T10:31:55.147Z,12.33
2019-04-05T10:32:57.781Z,15.30
2019-04-05T10:34:00.285Z,12.98
2019-04-05T10:35:03.042Z,10.60
2019-04-05T10:36:05.674Z,14.15
2019-04-05T10:37:08.460Z,10.03
2019-04-05T10:38:11.366Z,12.37
2019-04-05T10:39:14.142Z,12.05
2019-04-05T10:40:18.751Z,14.40
2019-04-05T10:41:23.018Z,10.72
2019-04-05T10:42:32.981Z,11.83
2019-04-05T10:43:35.555Z,15.10
2019-04-05T10:44:38.155Z,11.70
2019-04-05T10:45:40.986Z,13.22
2019-04-05T10:46:43.488Z,11.15
2019-04-05T10:47:45.980Z,10.60
2019-04-05T10:48:48.688Z,13.10
2019-04-05T10:50:02.365Z,13.00
2019-04-05T10:50:58.071Z,10.78
2019-04-05T10:52:00.872Z,13.62
2019-04-05T10:53:03.767Z,13.45
2019-04-05T10:54:09.295Z,16.73
2019-04-05T10:55:11.687Z,12.40
2019-04-05T10:56:14.245Z,12.78
2019-04-05T10:57:17.140Z,10.28
2019-04-05T10:58:21.495Z,12.82
2019-04-05T10:59:24.029Z,9.43
2019-04-05T11:00:27.791Z,11.73
2019-04-05T11:01:30.450Z,10.98
2019-04-05T11:02:33.482Z,15.72
2019-04-05T11:03:37.791Z,12.63
2019-04-05T11:04:40.407Z,15.50
2019-04-05T11:05:42.990Z,12.20
2019-04-05T11:06:45.701Z,10.20
2019-04-05T11:07:48.251Z,13.05
2019-04-05T11:08:51.017Z,14.30
2019-04-05T11:09:53.678Z,10.45
2019-04-05T11:10:57.412Z,14.18
2019-04-05T11:12:00.196Z,11.12
2019-04-05T11:13:02.834Z,15.75
2019-04-05T11:14:13.667Z,13.13
2019-04-05T11:15:14.982Z,13.85
2019-04-05T11:16:16.834Z,12.63
2019-04-05T11:17:19.481Z,12.20
2019-04-05T11:18:22.112Z,13.18
2019-04-05T11:19:25.154Z,15.05
2019-04-05T11:20:27.684Z,11.63
2019-04-05T11:21:31.390Z,12.75
2019-04-05T11:22:34.038Z,11.60
2019-04-05T11:23:36.697Z,12.45
2019-04-05T11:24:39.411Z,15.23
2019-04-05T11:25:41.918Z,14.03
2019-04-05T11:26:44.550Z,14.65
2019-04-05T11:27:47.705Z,11.18
2019-04-05T11:28:50.441Z,12.28
2019-04-05T11:29:53.032Z,13.43
2019-04-05T11:30:55.852Z,12.68
2019-04-05T11:31:58.422Z,12.88
2019-04-05T11:33:03.530Z,13.28
2019-04-05T11:34:07.530Z,12.73
2019-04-05T11:35:10.615Z,11.57
2019-04-05T11:36:16.435Z,16.65
2019-04-05T11:37:20.813Z,13.50
2019-04-05T11:38:24.762Z,14.98
2019-04-05T11:39:28.212Z,13.80
2019-04-05T11:40:31.843Z,13.78
2019-04-05T11:41:35.929Z,13.62
2019-04-05T11:42:42.029Z,13.40
2019-04-05T11:43:47.690Z,13.05
2019-04-05T11:44:53.515Z,13.68
2019-04-05T11:45:56.753Z,15.40
2019-04-05T11:47:00.203Z,12.60
2019-04-05T11:48:04.673Z,13.80
2019-04-05T11:49:07.503Z,10.53
2019-04-05T11:50:12.948Z,14.38
2019-04-05T11:51:17.040Z,12.43
2019-04-05T11:52:19.676Z,15.20
2019-04-05T11:53:22.265Z,10.98
2019-04-05T11:54:25.078Z,13.40
2019-04-05T11:55:27.727Z,15.10
2019-04-05T11:56:30.532Z,11.08
2019-04-05T11:57:33.281Z,16.23
2019-04-05T11:58:36.263Z,15.50
2019-04-05T11:59:38.978Z,15.08
2019-04-05T12:01:01.131Z,13.03
2019-04-05T12:02:10.976Z,14.55
2019-04-05T12:03:13.951Z,13.48
2019-04-05T12:04:16.756Z,13.43
2019-04-05T12:05:22.870Z,12.93
2019-04-05T12:06:24.948Z,12.82
2019-04-05T12:07:27.595Z,16.00
2019-04-05T12:08:30.581Z,17.23
2019-04-05T12:09:33.103Z,15.30
2019-04-05T12:10:35.887Z,11.28
2019-04-05T12:11:38.949Z,15.30
2019-04-05T12:12:41.741Z,13.55
2019-04-05T12:13:47.492Z,14.93
2019-04-05T12:14:49.538Z,12.78
2019-04-05T12:15:52.470Z,11.38
2019-04-05T12:16:56.086Z,12.18
2019-04-05T12:17:58.825Z,10.40
2019-04-05T12:19:04.478Z,13.93
2019-04-05T12:20:07.853Z,12.53
2019-04-05T12:21:11.750Z,12.93
2019-04-05T12:22:14.403Z,12.43
2019-04-05T12:23:17.131Z,14.93
2019-04-05T12:24:19.734Z,13.83
2019-04-05T12:25:22.291Z,15.03
2019-04-05T12:26:24.892Z,12.23
2019-04-05T12:27:27.580Z,14.60
2019-04-05T12:28:30.281Z,15.25
2019-04-05T12:29:32.855Z,14.90
2019-04-05T12:30:35.689Z,11.90
2019-04-05T12:31:38.248Z,12.95
2019-04-05T12:32:41.697Z,11.73
2019-04-05T12:33:46.839Z,16.12
2019-04-05T12:34:49.529Z,14.85
2019-04-05T12:35:56.610Z,15.45
2019-04-05T12:36:58.550Z,14.93
2019-04-05T12:38:01.085Z,21.50
2019-04-05T12:39:08.023Z,20.35
2019-04-05T12:40:11.284Z,10.55
2019-04-05T12:41:14.390Z,18.90
2019-04-05T12:42:17.195Z,14.47
2019-04-05T12:43:19.994Z,16.20
2019-04-05T12:44:23.711Z,13.28
2019-04-05T12:45:28.094Z,16.37
2019-04-05T12:46:30.845Z,14.28
2019-04-05T12:47:34.151Z,17.02
2019-04-05T12:48:37.045Z,13.85
2019-04-05T12:49:39.721Z,13.75
2019-04-05T12:50:45.018Z,17.55
2019-04-05T12:51:47.960Z,13.93
2019-04-05T12:52:51.692Z,17.25
2019-04-05T12:53:56.406Z,15.95
2019-04-05T12:54:58.790Z,15.08
2019-04-05T12:56:01.720Z,15.43
2019-04-05T12:57:04.439Z,14.33
2019-04-05T12:58:09.789Z,15.20
2019-04-05T12:59:11.639Z,14.43
2019-04-05T13:00:16.871Z,14.28
2019-04-05T13:01:19.401Z,15.13
2019-04-05T13:02:33.141Z,13.35
2019-04-05T13:03:26.531Z,17.25
2019-04-05T13:04:29.171Z,16.65
2019-04-05T13:05:31.883Z,14.05
2019-04-05T13:06:34.727Z,14.80
2019-04-05T13:07:37.393Z,16.80
2019-04-05T13:08:40.117Z,14.73
2019-04-05T13:09:45.676Z,15.00
2019-04-05T13:10:48.176Z,14.95
2019-04-05T13:11:50.664Z,16.00
2019-04-05T13:12:56.896Z,14.68
2019-04-05T13:13:57.940Z,14.18
2019-04-05T13:15:12.275Z,17.73
2019-04-05T13:16:09.817Z,17.12
2019-04-05T13:17:13.994Z,14.20
2019-04-05T13:18:16.512Z,18.60
2019-04-05T13:19:19.178Z,16.50
2019-04-05T13:20:21.798Z,20.85
2019-04-05T13:21:27.590Z,17.98
2019-04-05T13:22:32.113Z,17.92
2019-04-05T13:23:33.809Z,15.63
2019-04-05T13:24:40.274Z,13.15
2019-04-05T13:25:42.402Z,17.17
2019-04-05T13:26:45.093Z,14.93
2019-04-05T13:27:47.607Z,15.18
2019-04-05T13:28:50.374Z,18.55
2019-04-05T13:29:53.291Z,18.00
2019-04-05T13:30:57.121Z,18.37
2019-04-05T13:31:59.791Z,19.80
2019-04-05T13:33:02.673Z,13.25
2019-04-05T13:34:06.100Z,17.45
2019-04-05T13:35:09.126Z,18.23
2019-04-05T13:36:11.804Z,17.85
2019-04-05T13:37:20.574Z,13.98